sensor_id;sensor_type;location;lat;lon;timestamp;P1;durP1;ratioP1;P2;durP2;ratioP2
56593;SDS011;42474;51.660;5.824;2023-12-22T00:00:08;12.6;;;2.82;;
56593;SDS011;42474;51.660;5.824;2023-12-22T00:04:07;10.88;;;2.15;;
56593;SDS011;42474;51.660;5.824;2023-12-22T00:08:07;12.98;;;2.57;;
56593;SDS011;42474;51.660;5.824;2023-12-22T00:12:07;11.91;;;2.73;;
56593;SDS011;42474;51.660;5.824;2023-12-22T00:16:07;15.12;;;2.38;;
56593;SDS011;42474;51.660;5.824;2023-12-22T00:20:08;9.66;;;1.89;;
56593;SDS011;42474;51.660;5.824;2023-12-22T00:24:07;8.28;;;1.98;;
56593;SDS011;42474;51.660;5.824;2023-12-22T00:28:07;9.24;;;2.18;;
56593;SDS011;42474;51.660;5.824;2023-12-22T00:32:07;10.71;;;2.08;;
56593;SDS011;42474;51.660;5.824;2023-12-22T00:36:08;7.12;;;1.73;;
56593;SDS011;42474;51.660;5.824;2023-12-22T00:40:08;6.65;;;1.69;;
56593;SDS011;42474;51.660;5.824;2023-12-22T00:44:07;9.08;;;1.92;;
56593;SDS011;42474;51.660;5.824;2023-12-22T00:48:07;8.83;;;1.75;;
56593;SDS011;42474;51.660;5.824;2023-12-22T00:52:07;8.63;;;2.25;;
56593;SDS011;42474;51.660;5.824;2023-12-22T00:56:08;8.1;;;2.1;;
56593;SDS011;42474;51.660;5.824;2023-12-22T01:00:11;10.84;;;2.67;;
56593;SDS011;42474;51.660;5.824;2023-12-22T01:04:07;9.17;;;2.13;;
56593;SDS011;42474;51.660;5.824;2023-12-22T01:08:07;9.69;;;2.07;;
56593;SDS011;42474;51.660;5.824;2023-12-22T01:12:07;11.8;;;2.17;;
56593;SDS011;42474;51.660;5.824;2023-12-22T01:16:07;11.54;;;2.33;;
56593;SDS011;42474;51.660;5.824;2023-12-22T01:20:08;16.11;;;2.86;;
56593;SDS011;42474;51.660;5.824;2023-12-22T01:24:07;10.28;;;2.33;;
56593;SDS011;42474;51.660;5.824;2023-12-22T01:28:08;12.41;;;2.66;;
56593;SDS011;42474;51.660;5.824;2023-12-22T01:32:07;12.8;;;3.25;;
56593;SDS011;42474;51.660;5.824;2023-12-22T01:36:07;12.56;;;2.76;;
56593;SDS011;42474;51.660;5.824;2023-12-22T01:40:08;11.88;;;2.69;;
56593;SDS011;42474;51.660;5.824;2023-12-22T01:44:07;8.12;;;2.14;;
56593;SDS011;42474;51.660;5.824;2023-12-22T01:48:07;13.39;;;2.58;;
56593;SDS011;42474;51.660;5.824;2023-12-22T01:52:07;10.88;;;2.27;;
56593;SDS011;42474;51.660;5.824;2023-12-22T01:56:07;10.75;;;2.84;;
56593;SDS011;42474;51.660;5.824;2023-12-22T02:00:11;7.2;;;1.33;;
56593;SDS011;42474;51.660;5.824;2023-12-22T02:04:07;10.48;;;2.02;;
56593;SDS011;42474;51.660;5.824;2023-12-22T02:08:07;10.41;;;2.46;;
56593;SDS011;42474;51.660;5.824;2023-12-22T02:12:07;11.85;;;2.31;;
56593;SDS011;42474;51.660;5.824;2023-12-22T02:16:13;11.15;;;2.14;;
56593;SDS011;42474;51.660;5.824;2023-12-22T02:20:08;12.98;;;2.27;;
56593;SDS011;42474;51.660;5.824;2023-12-22T02:24:07;6.38;;;1.9;;
56593;SDS011;42474;51.660;5.824;2023-12-22T02:28:09;9.53;;;2.07;;
56593;SDS011;42474;51.660;5.824;2023-12-22T02:32:12;11.28;;;2.35;;
56593;SDS011;42474;51.660;5.824;2023-12-22T02:36:08;12.27;;;2.47;;
56593;SDS011;42474;51.660;5.824;2023-12-22T02:40:08;14.73;;;3.44;;
56593;SDS011;42474;51.660;5.824;2023-12-22T02:44:07;12.42;;;2.68;;
56593;SDS011;42474;51.660;5.824;2023-12-22T02:48:07;9.31;;;2.35;;
56593;SDS011;42474;51.660;5.824;2023-12-22T02:52:07;10.16;;;2.14;;
56593;SDS011;42474;51.660;5.824;2023-12-22T02:56:07;15.24;;;3.1;;
56593;SDS011;42474;51.660;5.824;2023-12-22T03:00:11;16.29;;;3.26;;
56593;SDS011;42474;51.660;5.824;2023-12-22T03:04:08;17.44;;;3.21;;
56593;SDS011;42474;51.660;5.824;2023-12-22T03:08:07;16.61;;;3.43;;
56593;SDS011;42474;51.660;5.824;2023-12-22T03:12:08;16.57;;;3.55;;
56593;SDS011;42474;51.660;5.824;2023-12-22T03:16:08;18.21;;;4.25;;
56593;SDS011;42474;51.660;5.824;2023-12-22T03:20:08;13.42;;;3.11;;
56593;SDS011;42474;51.660;5.824;2023-12-22T03:24:07;10.64;;;2.93;;
56593;SDS011;42474;51.660;5.824;2023-12-22T03:28:07;10.68;;;2.66;;
56593;SDS011;42474;51.660;5.824;2023-12-22T03:32:07;13.16;;;2.87;;
56593;SDS011;42474;51.660;5.824;2023-12-22T03:36:07;12.11;;;2.73;;
56593;SDS011;42474;51.660;5.824;2023-12-22T03:40:08;12.7;;;2.8;;
56593;SDS011;42474;51.660;5.824;2023-12-22T03:44:07;13.18;;;3.35;;
56593;SDS011;42474;51.660;5.824;2023-12-22T03:48:07;16.36;;;3.12;;
56593;SDS011;42474;51.660;5.824;2023-12-22T03:52:07;14.53;;;3.41;;
56593;SDS011;42474;51.660;5.824;2023-12-22T03:56:08;12.36;;;3.28;;
56593;SDS011;42474;51.660;5.824;2023-12-22T04:00:11;18.34;;;3.94;;
56593;SDS011;42474;51.660;5.824;2023-12-22T04:04:07;16.86;;;3.28;;
56593;SDS011;42474;51.660;5.824;2023-12-22T04:08:08;13.55;;;3.62;;
56593;SDS011;42474;51.660;5.824;2023-12-22T04:12:07;15.98;;;3.11;;
56593;SDS011;42474;51.660;5.824;2023-12-22T04:16:07;13.77;;;3.24;;
56593;SDS011;42474;51.660;5.824;2023-12-22T04:20:08;11.97;;;3.42;;
56593;SDS011;42474;51.660;5.824;2023-12-22T04:24:07;14.8;;;3.45;;
56593;SDS011;42474;51.660;5.824;2023-12-22T04:28:07;16.56;;;3.36;;
56593;SDS011;42474;51.660;5.824;2023-12-22T04:32:07;12.31;;;3.23;;
56593;SDS011;42474;51.660;5.824;2023-12-22T04:36:07;13.29;;;2.87;;
56593;SDS011;42474;51.660;5.824;2023-12-22T04:40:09;16.61;;;3.79;;
56593;SDS011;42474;51.660;5.824;2023-12-22T04:44:07;12.78;;;2.92;;
56593;SDS011;42474;51.660;5.824;2023-12-22T04:48:07;14;;;3.24;;
56593;SDS011;42474;51.660;5.824;2023-12-22T04:52:07;15.12;;;3.09;;
56593;SDS011;42474;51.660;5.824;2023-12-22T04:56:07;13.43;;;2.88;;
56593;SDS011;42474;51.660;5.824;2023-12-22T05:00:11;10.25;;;2.9;;
56593;SDS011;42474;51.660;5.824;2023-12-22T05:04:07;11.72;;;3.08;;
56593;SDS011;42474;51.660;5.824;2023-12-22T05:08:07;12.09;;;3.01;;
56593;SDS011;42474;51.660;5.824;2023-12-22T05:12:08;13.6;;;3.04;;
56593;SDS011;42474;51.660;5.824;2023-12-22T05:16:07;12.73;;;3.32;;
56593;SDS011;42474;51.660;5.824;2023-12-22T05:20:08;13.48;;;2.81;;
56593;SDS011;42474;51.660;5.824;2023-12-22T05:24:07;12.68;;;2.92;;
56593;SDS011;42474;51.660;5.824;2023-12-22T05:28:07;14.12;;;2.99;;
56593;SDS011;42474;51.660;5.824;2023-12-22T05:32:07;13.95;;;3.23;;
56593;SDS011;42474;51.660;5.824;2023-12-22T05:36:08;12.86;;;3.02;;
56593;SDS011;42474;51.660;5.824;2023-12-22T05:40:08;9.6;;;2.71;;
56593;SDS011;42474;51.660;5.824;2023-12-22T05:44:07;8.9;;;2.52;;
56593;SDS011;42474;51.660;5.824;2023-12-22T05:48:07;11.22;;;2.63;;
56593;SDS011;42474;51.660;5.824;2023-12-22T05:52:07;13.18;;;2.68;;
56593;SDS011;42474;51.660;5.824;2023-12-22T05:56:17;10.64;;;2.54;;
56593;SDS011;42474;51.660;5.824;2023-12-22T06:00:11;11.75;;;2.67;;
56593;SDS011;42474;51.660;5.824;2023-12-22T06:04:07;12.04;;;2.92;;
56593;SDS011;42474;51.660;5.824;2023-12-22T06:08:08;12.95;;;2.5;;
56593;SDS011;42474;51.660;5.824;2023-12-22T06:12:07;9.36;;;2.3;;
56593;SDS011;42474;51.660;5.824;2023-12-22T06:16:11;12.31;;;2.65;;
56593;SDS011;42474;51.660;5.824;2023-12-22T06:20:08;9.41;;;2.86;;
56593;SDS011;42474;51.660;5.824;2023-12-22T06:24:07;9.78;;;2.74;;
56593;SDS011;42474;51.660;5.824;2023-12-22T06:28:07;12.25;;;2.9;;
56593;SDS011;42474;51.660;5.824;2023-12-22T06:32:07;12.41;;;2.93;;
56593;SDS011;42474;51.660;5.824;2023-12-22T06:36:07;11.09;;;2.97;;
56593;SDS011;42474;51.660;5.824;2023-12-22T06:40:08;15.61;;;2.89;;
56593;SDS011;42474;51.660;5.824;2023-12-22T06:44:07;14.4;;;3.41;;
56593;SDS011;42474;51.660;5.824;2023-12-22T06:48:08;19.54;;;3.83;;
56593;SDS011;42474;51.660;5.824;2023-12-22T06:52:07;19.72;;;4.52;;
56593;SDS011;42474;51.660;5.824;2023-12-22T06:56:15;14.67;;;3.76;;
56593;SDS011;42474;51.660;5.824;2023-12-22T07:00:11;14.97;;;4.06;;
56593;SDS011;42474;51.660;5.824;2023-12-22T07:04:07;16.51;;;4.52;;
56593;SDS011;42474;51.660;5.824;2023-12-22T07:08:07;21.83;;;4.91;;
56593;SDS011;42474;51.660;5.824;2023-12-22T07:12:07;21.84;;;5.41;;
56593;SDS011;42474;51.660;5.824;2023-12-22T07:16:07;19.2;;;4.69;;
56593;SDS011;42474;51.660;5.824;2023-12-22T07:20:08;22.82;;;5.04;;
56593;SDS011;42474;51.660;5.824;2023-12-22T07:24:07;22.93;;;5.29;;
56593;SDS011;42474;51.660;5.824;2023-12-22T07:28:07;22.88;;;5.68;;
56593;SDS011;42474;51.660;5.824;2023-12-22T07:32:07;26.26;;;5.98;;
56593;SDS011;42474;51.660;5.824;2023-12-22T07:36:07;21.83;;;5.58;;
56593;SDS011;42474;51.660;5.824;2023-12-22T07:40:11;26.3;;;6.93;;
56593;SDS011;42474;51.660;5.824;2023-12-22T07:44:07;29.79;;;6.85;;
56593;SDS011;42474;51.660;5.824;2023-12-22T07:48:07;25.37;;;7.05;;
56593;SDS011;42474;51.660;5.824;2023-12-22T07:52:07;21.5;;;6.04;;
56593;SDS011;42474;51.660;5.824;2023-12-22T07:56:07;24.15;;;6.33;;
56593;SDS011;42474;51.660;5.824;2023-12-22T08:00:11;28.38;;;6.51;;
56593;SDS011;42474;51.660;5.824;2023-12-22T08:04:07;27.78;;;6.39;;
56593;SDS011;42474;51.660;5.824;2023-12-22T08:08:07;23.48;;;5.47;;
56593;SDS011;42474;51.660;5.824;2023-12-22T08:12:08;28.96;;;6.47;;
56593;SDS011;42474;51.660;5.824;2023-12-22T08:16:07;24.03;;;5.78;;
56593;SDS011;42474;51.660;5.824;2023-12-22T08:20:08;25.9;;;5.73;;
56593;SDS011;42474;51.660;5.824;2023-12-22T08:24:07;20.07;;;5.21;;
56593;SDS011;42474;51.660;5.824;2023-12-22T08:28:07;20.77;;;4.97;;
56593;SDS011;42474;51.660;5.824;2023-12-22T08:32:07;21.4;;;4.97;;
56593;SDS011;42474;51.660;5.824;2023-12-22T08:36:07;21.21;;;4.87;;
56593;SDS011;42474;51.660;5.824;2023-12-22T08:40:08;20.62;;;4.98;;
56593;SDS011;42474;51.660;5.824;2023-12-22T08:44:07;22.37;;;5.42;;
56593;SDS011;42474;51.660;5.824;2023-12-22T08:48:07;18.5;;;4.72;;
56593;SDS011;42474;51.660;5.824;2023-12-22T08:52:07;21.25;;;4.95;;
56593;SDS011;42474;51.660;5.824;2023-12-22T08:56:07;19.52;;;4.22;;
56593;SDS011;42474;51.660;5.824;2023-12-22T09:00:11;12.81;;;3.67;;
56593;SDS011;42474;51.660;5.824;2023-12-22T09:04:09;15.31;;;3.64;;
56593;SDS011;42474;51.660;5.824;2023-12-22T09:08:07;15.38;;;3.85;;
56593;SDS011;42474;51.660;5.824;2023-12-22T09:12:07;14.06;;;3.51;;
56593;SDS011;42474;51.660;5.824;2023-12-22T09:16:08;12.86;;;3.28;;
56593;SDS011;42474;51.660;5.824;2023-12-22T09:20:09;11.45;;;3.01;;
56593;SDS011;42474;51.660;5.824;2023-12-22T09:24:07;8.7;;;2.65;;
56593;SDS011;42474;51.660;5.824;2023-12-22T09:28:07;13.05;;;2.88;;
56593;SDS011;42474;51.660;5.824;2023-12-22T09:32:07;6.87;;;2.27;;
56593;SDS011;42474;51.660;5.824;2023-12-22T09:36:08;6.51;;;1.97;;
56593;SDS011;42474;51.660;5.824;2023-12-22T09:40:08;7.48;;;2.63;;
56593;SDS011;42474;51.660;5.824;2023-12-22T09:44:07;9.17;;;2.32;;
56593;SDS011;42474;51.660;5.824;2023-12-22T09:48:07;8.52;;;2.04;;
56593;SDS011;42474;51.660;5.824;2023-12-22T09:52:08;4.91;;;1.95;;
56593;SDS011;42474;51.660;5.824;2023-12-22T09:56:08;7.26;;;1.81;;
56593;SDS011;42474;51.660;5.824;2023-12-22T10:00:10;4.57;;;1.71;;
56593;SDS011;42474;51.660;5.824;2023-12-22T10:04:07;7.41;;;1.71;;
56593;SDS011;42474;51.660;5.824;2023-12-22T10:08:08;7.24;;;1.96;;
56593;SDS011;42474;51.660;5.824;2023-12-22T10:12:09;5.53;;;2.01;;
56593;SDS011;42474;51.660;5.824;2023-12-22T10:16:07;7.74;;;1.88;;
56593;SDS011;42474;51.660;5.824;2023-12-22T10:20:09;6.92;;;1.7;;
56593;SDS011;42474;51.660;5.824;2023-12-22T10:24:07;7.33;;;1.79;;
56593;SDS011;42474;51.660;5.824;2023-12-22T10:28:10;7.09;;;2.04;;
56593;SDS011;42474;51.660;5.824;2023-12-22T10:32:08;3.4;;;1.52;;
56593;SDS011;42474;51.660;5.824;2023-12-22T10:36:07;7.67;;;1.56;;
56593;SDS011;42474;51.660;5.824;2023-12-22T10:40:09;9.07;;;1.77;;
56593;SDS011;42474;51.660;5.824;2023-12-22T10:44:08;6.1;;;1.69;;
56593;SDS011;42474;51.660;5.824;2023-12-22T10:48:07;6.72;;;1.57;;
56593;SDS011;42474;51.660;5.824;2023-12-22T10:52:15;4.73;;;1.4;;
56593;SDS011;42474;51.660;5.824;2023-12-22T10:56:07;7.56;;;1.66;;
56593;SDS011;42474;51.660;5.824;2023-12-22T11:00:11;6.18;;;1.39;;
56593;SDS011;42474;51.660;5.824;2023-12-22T11:04:09;5.39;;;1.32;;
56593;SDS011;42474;51.660;5.824;2023-12-22T11:08:10;5.17;;;1.46;;
56593;SDS011;42474;51.660;5.824;2023-12-22T11:12:08;5.33;;;1.64;;
56593;SDS011;42474;51.660;5.824;2023-12-22T11:16:08;3.85;;;1.38;;
56593;SDS011;42474;51.660;5.824;2023-12-22T11:20:09;4.84;;;1.46;;
56593;SDS011;42474;51.660;5.824;2023-12-22T11:24:08;5.36;;;1.59;;
56593;SDS011;42474;51.660;5.824;2023-12-22T11:28:08;3.62;;;1.4;;
56593;SDS011;42474;51.660;5.824;2023-12-22T11:32:08;4.48;;;1.49;;
56593;SDS011;42474;51.660;5.824;2023-12-22T11:36:08;3.62;;;1.44;;
56593;SDS011;42474;51.660;5.824;2023-12-22T11:40:08;3.83;;;1.5;;
56593;SDS011;42474;51.660;5.824;2023-12-22T11:44:08;4.75;;;1.39;;
56593;SDS011;42474;51.660;5.824;2023-12-22T11:48:08;4.31;;;1.27;;
56593;SDS011;42474;51.660;5.824;2023-12-22T11:52:12;4.77;;;1.65;;
56593;SDS011;42474;51.660;5.824;2023-12-22T11:56:09;3.78;;;1.4;;
56593;SDS011;42474;51.660;5.824;2023-12-22T12:00:37;4.27;;;1.25;;
56593;SDS011;42474;51.660;5.824;2023-12-22T12:04:07;5.45;;;1.43;;
56593;SDS011;42474;51.660;5.824;2023-12-22T12:08:07;4.89;;;1.51;;
56593;SDS011;42474;51.660;5.824;2023-12-22T12:12:13;4.48;;;1.5;;
56593;SDS011;42474;51.660;5.824;2023-12-22T12:16:08;4.27;;;1.47;;
56593;SDS011;42474;51.660;5.824;2023-12-22T12:20:09;4.76;;;1.08;;
56593;SDS011;42474;51.660;5.824;2023-12-22T12:24:08;3.46;;;1.17;;
56593;SDS011;42474;51.660;5.824;2023-12-22T12:28:08;3.33;;;0.97;;
56593;SDS011;42474;51.660;5.824;2023-12-22T12:32:08;4.33;;;1.53;;
56593;SDS011;42474;51.660;5.824;2023-12-22T12:36:08;4.5;;;1.5;;
56593;SDS011;42474;51.660;5.824;2023-12-22T12:40:08;4.35;;;1.6;;
56593;SDS011;42474;51.660;5.824;2023-12-22T12:44:08;4.45;;;1.53;;
56593;SDS011;42474;51.660;5.824;2023-12-22T12:48:08;4.34;;;1.43;;
56593;SDS011;42474;51.660;5.824;2023-12-22T12:52:12;8.97;;;1.84;;
56593;SDS011;42474;51.660;5.824;2023-12-22T12:56:07;6.4;;;1.87;;
56593;SDS011;42474;51.660;5.824;2023-12-22T13:00:10;8.26;;;1.83;;
56593;SDS011;42474;51.660;5.824;2023-12-22T13:04:08;5.53;;;1.94;;
56593;SDS011;42474;51.660;5.824;2023-12-22T13:08:08;5.58;;;1.76;;
56593;SDS011;42474;51.660;5.824;2023-12-22T13:12:08;4.12;;;1.19;;
56593;SDS011;42474;51.660;5.824;2023-12-22T13:16:08;4.68;;;1.62;;
56593;SDS011;42474;51.660;5.824;2023-12-22T13:20:09;4.12;;;1.13;;
56593;SDS011;42474;51.660;5.824;2023-12-22T13:24:13;3.92;;;1.34;;
56593;SDS011;42474;51.660;5.824;2023-12-22T13:28:07;4.18;;;1.21;;
56593;SDS011;42474;51.660;5.824;2023-12-22T13:32:07;6.23;;;1.37;;
56593;SDS011;42474;51.660;5.824;2023-12-22T13:36:08;6.68;;;1.48;;
56593;SDS011;42474;51.660;5.824;2023-12-22T13:40:09;5.71;;;1.65;;
56593;SDS011;42474;51.660;5.824;2023-12-22T13:44:08;3.16;;;1.13;;
56593;SDS011;42474;51.660;5.824;2023-12-22T13:48:08;3;;;0.92;;
56593;SDS011;42474;51.660;5.824;2023-12-22T13:52:07;4.83;;;1.31;;
56593;SDS011;42474;51.660;5.824;2023-12-22T13:56:07;3.53;;;1.35;;
56593;SDS011;42474;51.660;5.824;2023-12-22T14:00:40;3.96;;;1.06;;
56593;SDS011;42474;51.660;5.824;2023-12-22T14:04:08;7.64;;;1.46;;
56593;SDS011;42474;51.660;5.824;2023-12-22T14:08:08;3.8;;;1.51;;
56593;SDS011;42474;51.660;5.824;2023-12-22T14:12:08;5.27;;;1.38;;
56593;SDS011;42474;51.660;5.824;2023-12-22T14:16:10;3.18;;;1.25;;
56593;SDS011;42474;51.660;5.824;2023-12-22T14:20:08;7.32;;;1.36;;
56593;SDS011;42474;51.660;5.824;2023-12-22T14:24:08;6.57;;;1.89;;
56593;SDS011;42474;51.660;5.824;2023-12-22T14:28:08;4.14;;;1.4;;
56593;SDS011;42474;51.660;5.824;2023-12-22T14:32:07;5.12;;;1.82;;
56593;SDS011;42474;51.660;5.824;2023-12-22T14:36:08;7.3;;;1.39;;
56593;SDS011;42474;51.660;5.824;2023-12-22T14:40:08;7.22;;;1.98;;
56593;SDS011;42474;51.660;5.824;2023-12-22T14:44:08;6.64;;;1.71;;
56593;SDS011;42474;51.660;5.824;2023-12-22T14:48:08;5.59;;;1.54;;
56593;SDS011;42474;51.660;5.824;2023-12-22T14:52:07;5.27;;;1.55;;
56593;SDS011;42474;51.660;5.824;2023-12-22T14:56:07;4.95;;;1.72;;
56593;SDS011;42474;51.660;5.824;2023-12-22T15:00:09;6.82;;;1.57;;
56593;SDS011;42474;51.660;5.824;2023-12-22T15:04:08;4.71;;;1.61;;
56593;SDS011;42474;51.660;5.824;2023-12-22T15:08:08;5.74;;;1.46;;
56593;SDS011;42474;51.660;5.824;2023-12-22T15:12:08;3.99;;;1.27;;
56593;SDS011;42474;51.660;5.824;2023-12-22T15:16:08;5.13;;;1.62;;
56593;SDS011;42474;51.660;5.824;2023-12-22T15:20:08;7.16;;;2.02;;
56593;SDS011;42474;51.660;5.824;2023-12-22T15:24:08;6.49;;;1.64;;
56593;SDS011;42474;51.660;5.824;2023-12-22T15:28:08;5.41;;;1.38;;
56593;SDS011;42474;51.660;5.824;2023-12-22T15:32:07;5.43;;;1.68;;
56593;SDS011;42474;51.660;5.824;2023-12-22T15:36:08;5.52;;;1.85;;
56593;SDS011;42474;51.660;5.824;2023-12-22T15:40:09;6.49;;;2.09;;
56593;SDS011;42474;51.660;5.824;2023-12-22T15:44:08;5.97;;;2.12;;
56593;SDS011;42474;51.660;5.824;2023-12-22T15:48:08;6.61;;;2.19;;
56593;SDS011;42474;51.660;5.824;2023-12-22T15:52:08;6.55;;;2.02;;
56593;SDS011;42474;51.660;5.824;2023-12-22T15:56:09;11.02;;;2.8;;
56593;SDS011;42474;51.660;5.824;2023-12-22T16:00:09;7.57;;;2.11;;
56593;SDS011;42474;51.660;5.824;2023-12-22T16:04:08;6.12;;;1.79;;
56593;SDS011;42474;51.660;5.824;2023-12-22T16:08:08;7.88;;;2.21;;
56593;SDS011;42474;51.660;5.824;2023-12-22T16:12:08;6.6;;;1.87;;
56593;SDS011;42474;51.660;5.824;2023-12-22T16:16:08;11.27;;;2.09;;
56593;SDS011;42474;51.660;5.824;2023-12-22T16:20:08;7.73;;;2.11;;
56593;SDS011;42474;51.660;5.824;2023-12-22T16:24:08;9.18;;;2.14;;
56593;SDS011;42474;51.660;5.824;2023-12-22T16:28:08;7.38;;;2.04;;
56593;SDS011;42474;51.660;5.824;2023-12-22T16:32:08;8.28;;;2.37;;
56593;SDS011;42474;51.660;5.824;2023-12-22T16:36:08;6.17;;;2.08;;
56593;SDS011;42474;51.660;5.824;2023-12-22T16:40:09;6.58;;;1.95;;
56593;SDS011;42474;51.660;5.824;2023-12-22T16:44:08;7.02;;;1.99;;
56593;SDS011;42474;51.660;5.824;2023-12-22T16:48:08;9.12;;;1.82;;
56593;SDS011;42474;51.660;5.824;2023-12-22T16:52:08;7.06;;;2.23;;
56593;SDS011;42474;51.660;5.824;2023-12-22T16:56:08;7.26;;;1.95;;
56593;SDS011;42474;51.660;5.824;2023-12-22T17:00:09;5.68;;;1.92;;
56593;SDS011;42474;51.660;5.824;2023-12-22T17:04:08;7.39;;;1.89;;
56593;SDS011;42474;51.660;5.824;2023-12-22T17:08:08;5.28;;;1.51;;
56593;SDS011;42474;51.660;5.824;2023-12-22T17:12:08;8.61;;;2.2;;
56593;SDS011;42474;51.660;5.824;2023-12-22T17:16:08;7.3;;;1.78;;
56593;SDS011;42474;51.660;5.824;2023-12-22T17:20:08;5.8;;;1.75;;
56593;SDS011;42474;51.660;5.824;2023-12-22T17:24:08;6.79;;;1.82;;
56593;SDS011;42474;51.660;5.824;2023-12-22T17:28:08;8.64;;;2.07;;
56593;SDS011;42474;51.660;5.824;2023-12-22T17:32:08;6.66;;;1.71;;
56593;SDS011;42474;51.660;5.824;2023-12-22T17:36:09;7.91;;;1.92;;
56593;SDS011;42474;51.660;5.824;2023-12-22T17:40:09;8;;;1.66;;
56593;SDS011;42474;51.660;5.824;2023-12-22T17:44:08;10.13;;;1.91;;
56593;SDS011;42474;51.660;5.824;2023-12-22T17:48:08;5.45;;;1.75;;
56593;SDS011;42474;51.660;5.824;2023-12-22T17:52:08;9.99;;;2.29;;
56593;SDS011;42474;51.660;5.824;2023-12-22T17:56:08;6.86;;;2.01;;
56593;SDS011;42474;51.660;5.824;2023-12-22T18:00:10;6.32;;;2.07;;
56593;SDS011;42474;51.660;5.824;2023-12-22T18:04:08;4.27;;;1.59;;
56593;SDS011;42474;51.660;5.824;2023-12-22T18:08:09;7.2;;;1.81;;
56593;SDS011;42474;51.660;5.824;2023-12-22T18:12:08;4.96;;;1.76;;
56593;SDS011;42474;51.660;5.824;2023-12-22T18:16:08;7.07;;;2.05;;
56593;SDS011;42474;51.660;5.824;2023-12-22T18:20:10;7.11;;;2.09;;
56593;SDS011;42474;51.660;5.824;2023-12-22T18:24:08;8.58;;;1.96;;
56593;SDS011;42474;51.660;5.824;2023-12-22T18:28:08;9.76;;;2.18;;
56593;SDS011;42474;51.660;5.824;2023-12-22T18:32:08;8.11;;;1.96;;
56593;SDS011;42474;51.660;5.824;2023-12-22T18:36:08;7.44;;;2.03;;
56593;SDS011;42474;51.660;5.824;2023-12-22T18:40:08;6.23;;;1.84;;
56593;SDS011;42474;51.660;5.824;2023-12-22T18:44:08;6.36;;;1.77;;
56593;SDS011;42474;51.660;5.824;2023-12-22T18:48:08;9.54;;;2.36;;
56593;SDS011;42474;51.660;5.824;2023-12-22T18:52:08;5.76;;;1.77;;
56593;SDS011;42474;51.660;5.824;2023-12-22T18:56:08;8.15;;;1.91;;
56593;SDS011;42474;51.660;5.824;2023-12-22T19:00:10;8.36;;;2.2;;
56593;SDS011;42474;51.660;5.824;2023-12-22T19:04:08;7.1;;;2.24;;
56593;SDS011;42474;51.660;5.824;2023-12-22T19:08:08;8.68;;;2.34;;
56593;SDS011;42474;51.660;5.824;2023-12-22T19:12:08;7.85;;;1.81;;
56593;SDS011;42474;51.660;5.824;2023-12-22T19:16:08;5.47;;;1.74;;
56593;SDS011;42474;51.660;5.824;2023-12-22T19:20:08;7.33;;;2.2;;
56593;SDS011;42474;51.660;5.824;2023-12-22T19:24:08;6.36;;;1.98;;
56593;SDS011;42474;51.660;5.824;2023-12-22T19:28:08;5.6;;;1.91;;
56593;SDS011;42474;51.660;5.824;2023-12-22T19:32:08;6.14;;;1.89;;
56593;SDS011;42474;51.660;5.824;2023-12-22T19:36:08;7.02;;;2.17;;
56593;SDS011;42474;51.660;5.824;2023-12-22T19:40:09;10.65;;;2.51;;
56593;SDS011;42474;51.660;5.824;2023-12-22T19:44:08;9.37;;;2.54;;
56593;SDS011;42474;51.660;5.824;2023-12-22T19:48:08;9.5;;;2.3;;
56593;SDS011;42474;51.660;5.824;2023-12-22T19:52:08;7.26;;;1.87;;
56593;SDS011;42474;51.660;5.824;2023-12-22T19:56:08;9.48;;;2.37;;
56593;SDS011;42474;51.660;5.824;2023-12-22T20:00:10;8.74;;;2.51;;
56593;SDS011;42474;51.660;5.824;2023-12-22T20:04:08;9.04;;;2.54;;
56593;SDS011;42474;51.660;5.824;2023-12-22T20:08:08;10.02;;;2.12;;
56593;SDS011;42474;51.660;5.824;2023-12-22T20:12:08;11.36;;;2.38;;
56593;SDS011;42474;51.660;5.824;2023-12-22T20:16:08;9.23;;;2.01;;
56593;SDS011;42474;51.660;5.824;2023-12-22T20:20:09;7.7;;;2.52;;
56593;SDS011;42474;51.660;5.824;2023-12-22T20:24:08;3.71;;;1.03;;
56593;SDS011;42474;51.660;5.824;2023-12-22T20:28:08;3.58;;;1.05;;
56593;SDS011;42474;51.660;5.824;2023-12-22T20:32:08;2.58;;;0.79;;
56593;SDS011;42474;51.660;5.824;2023-12-22T20:36:08;4.82;;;1.29;;
56593;SDS011;42474;51.660;5.824;2023-12-22T20:40:08;6.03;;;1.11;;
56593;SDS011;42474;51.660;5.824;2023-12-22T20:44:08;3.89;;;1.16;;
56593;SDS011;42474;51.660;5.824;2023-12-22T20:48:08;6.44;;;1.16;;
56593;SDS011;42474;51.660;5.824;2023-12-22T20:52:08;3.7;;;1.03;;
56593;SDS011;42474;51.660;5.824;2023-12-22T20:56:22;3.8;;;1.03;;
56593;SDS011;42474;51.660;5.824;2023-12-22T21:00:10;4.7;;;1.33;;
56593;SDS011;42474;51.660;5.824;2023-12-22T21:04:08;4.57;;;1.47;;
56593;SDS011;42474;51.660;5.824;2023-12-22T21:08:08;3.92;;;1.14;;
56593;SDS011;42474;51.660;5.824;2023-12-22T21:12:08;6.38;;;1.56;;
56593;SDS011;42474;51.660;5.824;2023-12-22T21:16:08;4.16;;;0.91;;
56593;SDS011;42474;51.660;5.824;2023-12-22T21:20:09;5.78;;;1.37;;
56593;SDS011;42474;51.660;5.824;2023-12-22T21:24:08;6.74;;;1.21;;
56593;SDS011;42474;51.660;5.824;2023-12-22T21:28:08;3.65;;;1.09;;
56593;SDS011;42474;51.660;5.824;2023-12-22T21:32:08;5.07;;;1.16;;
56593;SDS011;42474;51.660;5.824;2023-12-22T21:36:18;4.61;;;1.02;;
56593;SDS011;42474;51.660;5.824;2023-12-22T21:40:09;5.66;;;1.35;;
56593;SDS011;42474;51.660;5.824;2023-12-22T21:44:08;5.68;;;1.37;;
56593;SDS011;42474;51.660;5.824;2023-12-22T21:48:08;4.27;;;1.19;;
56593;SDS011;42474;51.660;5.824;2023-12-22T21:52:08;7.18;;;1.15;;
56593;SDS011;42474;51.660;5.824;2023-12-22T21:56:08;7.29;;;1.52;;
56593;SDS011;42474;51.660;5.824;2023-12-22T22:00:09;7.27;;;1.42;;
56593;SDS011;42474;51.660;5.824;2023-12-22T22:04:08;7.04;;;1.53;;
56593;SDS011;42474;51.660;5.824;2023-12-22T22:08:08;6.82;;;1.38;;
56593;SDS011;42474;51.660;5.824;2023-12-22T22:12:08;5.91;;;1.47;;
56593;SDS011;42474;51.660;5.824;2023-12-22T22:16:08;6.66;;;1.78;;
56593;SDS011;42474;51.660;5.824;2023-12-22T22:20:09;9.16;;;1.8;;
56593;SDS011;42474;51.660;5.824;2023-12-22T22:24:08;8.01;;;1.75;;
56593;SDS011;42474;51.660;5.824;2023-12-22T22:28:08;7.59;;;1.64;;
56593;SDS011;42474;51.660;5.824;2023-12-22T22:32:08;6.24;;;1.52;;
56593;SDS011;42474;51.660;5.824;2023-12-22T22:36:08;7.72;;;1.53;;
56593;SDS011;42474;51.660;5.824;2023-12-22T22:40:09;7.91;;;1.77;;
56593;SDS011;42474;51.660;5.824;2023-12-22T22:44:08;5.99;;;1.29;;
56593;SDS011;42474;51.660;5.824;2023-12-22T22:48:08;7.34;;;1.63;;
56593;SDS011;42474;51.660;5.824;2023-12-22T22:52:08;7.49;;;1.71;;
56593;SDS011;42474;51.660;5.824;2023-12-22T22:56:08;8.26;;;2.52;;
56593;SDS011;42474;51.660;5.824;2023-12-22T23:04:08;9.03;;;1.67;;
56593;SDS011;42474;51.660;5.824;2023-12-22T23:08:08;9.39;;;1.74;;
56593;SDS011;42474;51.660;5.824;2023-12-22T23:12:08;9.99;;;1.99;;
56593;SDS011;42474;51.660;5.824;2023-12-22T23:16:08;10.44;;;2.1;;
56593;SDS011;42474;51.660;5.824;2023-12-22T23:20:08;6.35;;;1.63;;
56593;SDS011;42474;51.660;5.824;2023-12-22T23:24:08;6.71;;;1.6;;
56593;SDS011;42474;51.660;5.824;2023-12-22T23:28:08;8.34;;;1.68;;
56593;SDS011;42474;51.660;5.824;2023-12-22T23:32:08;7.27;;;1.79;;
56593;SDS011;42474;51.660;5.824;2023-12-22T23:36:08;7.49;;;1.4;;
56593;SDS011;42474;51.660;5.824;2023-12-22T23:40:09;8;;;1.93;;
56593;SDS011;42474;51.660;5.824;2023-12-22T23:44:08;6.39;;;1.61;;
56593;SDS011;42474;51.660;5.824;2023-12-22T23:48:08;6.35;;;1.53;;
56593;SDS011;42474;51.660;5.824;2023-12-22T23:52:08;7.07;;;1.76;;
56593;SDS011;42474;51.660;5.824;2023-12-22T23:56:08;8.25;;;1.64;;
